Time;durP1;ratioP1;P1;durP2;ratioP2;P2;SDS_P1;SDS_P2;PMS_P1;PMS_P2;Temp;Humidity;BMP_temperature;BMP_pressure;BME280_temperature;BME280_humidity;BME280_pressure;Samples;Min_cycle;Max_cycle;Signal;HPM_P1;HPM_P2
2021/10/09 00:01:57;;;;;;;30.23;21.30;;;9.70;99.90;;;;;;5014770;28;20804;-63
2021/10/09 00:04:24;;;;;;;28.63;20.63;;;9.70;99.90;;;;;;5014624;28;20462;-62
2021/10/09 00:06:51;;;;;;;30.17;21.40;;;9.70;99.90;;;;;;5014610;28;20446;-62
2021/10/09 00:09:19;;;;;;;32.23;21.83;;;9.70;99.90;;;;;;5027371;28;20858;-63
2021/10/09 00:11:46;;;;;;;26.07;18.93;;;9.70;99.90;;;;;;5034110;28;20989;-62
2021/10/09 00:14:14;;;;;;;34.83;23.53;;;9.60;99.90;;;;;;5034048;28;20918;-62
2021/10/09 00:16:43;;;;;;;28.07;20.10;;;9.50;99.90;;;;;;5034244;28;20805;-62
2021/10/09 00:19:11;;;;;;;32.87;22.90;;;9.50;99.90;;;;;;5021796;28;20861;-63
2021/10/09 00:21:43;;;;;;;26.37;19.47;;;9.40;99.90;;;;;;5014263;28;20450;-62
2021/10/09 00:24:10;;;;;;;27.27;21.23;;;9.40;99.90;;;;;;5014194;28;20480;-62
2021/10/09 00:26:39;;;;;;;22.63;17.67;;;9.30;99.90;;;;;;5013796;28;20438;-62
2021/10/09 00:29:06;;;;;;;29.07;22.70;;;9.30;99.90;;;;;;5024858;28;20452;-63
2021/10/09 00:31:32;;;;;;;33.43;22.57;;;9.30;99.90;;;;;;5033845;28;20481;-61
2021/10/09 00:33:59;;;;;;;34.20;27.20;;;9.20;99.90;;;;;;5033827;28;20449;-62
2021/10/09 00:36:26;;;;;;;33.20;20.80;;;9.20;99.90;;;;;;5033544;28;20467;-62
2021/10/09 00:38:54;;;;;;;36.37;25.93;;;9.20;99.90;;;;;;5024193;28;20450;-63
2021/10/09 00:41:20;;;;;;;35.40;27.40;;;9.20;99.90;;;;;;5014029;28;20445;-63
2021/10/09 00:43:48;;;;;;;43.33;29.57;;;9.20;99.90;;;;;;5013838;28;20465;-62
2021/10/09 00:46:15;;;;;;;42.50;29.97;;;9.10;99.90;;;;;;5013763;28;20813;-63
2021/10/09 00:48:43;;;;;;;56.13;34.20;;;9.10;99.90;;;;;;5020659;28;20447;-62
2021/10/09 00:51:10;;;;;;;41.57;30.20;;;9.20;99.90;;;;;;5033388;28;20994;-63
2021/10/09 00:53:39;;;;;;;40.37;28.97;;;9.20;99.90;;;;;;5033574;28;20448;-63
2021/10/09 00:56:07;;;;;;;41.37;28.20;;;9.20;99.90;;;;;;5033246;28;20500;-64
2021/10/09 00:58:37;;;;;;;42.80;31.77;;;9.10;99.90;;;;;;5032932;28;20789;-62
2021/10/09 01:01:06;;;;;;;36.90;28.87;;;9.10;99.90;;;;;;5033340;28;20814;-62
2021/10/09 01:03:32;;;;;;;47.90;32.80;;;9.10;99.90;;;;;;5033565;28;20449;-64
2021/10/09 01:05:59;;;;;;;51.50;34.47;;;9.00;99.90;;;;;;5020542;28;20462;-61
2021/10/09 01:08:26;;;;;;;38.97;29.67;;;9.00;99.90;;;;;;5013173;28;20453;-63
2021/10/09 01:10:52;;;;;;;49.13;33.37;;;9.00;99.90;;;;;;5013219;28;20485;-63
2021/10/09 01:13:19;;;;;;;56.57;34.90;;;8.90;99.90;;;;;;5013341;28;20464;-61
2021/10/09 01:15:46;;;;;;;47.83;32.63;;;9.00;99.90;;;;;;5023108;28;20492;-63
2021/10/09 01:18:16;;;;;;;58.57;35.40;;;8.90;99.90;;;;;;5032765;28;20444;-62
2021/10/09 01:20:47;;;;;;;45.57;29.70;;;8.90;99.90;;;;;;5032799;28;20464;-63
2021/10/09 01:23:14;;;;;;;44.03;30.20;;;8.90;99.90;;;;;;5033111;28;20946;-63
2021/10/09 01:25:41;;;;;;;51.13;31.60;;;8.90;99.90;;;;;;5023411;28;20466;-62
2021/10/09 01:28:08;;;;;;;45.90;31.63;;;8.80;99.90;;;;;;5012786;28;20453;-62
2021/10/09 01:30:35;;;;;;;42.50;29.80;;;8.80;99.90;;;;;;5012870;28;20442;-62
2021/10/09 01:33:02;;;;;;;50.00;31.60;;;8.80;99.90;;;;;;5014059;28;20862;-63
2021/10/09 01:35:29;;;;;;;38.67;25.93;;;8.70;99.90;;;;;;5012679;28;20469;-63
2021/10/09 01:37:57;;;;;;;40.27;29.83;;;8.70;99.90;;;;;;5012544;28;20810;-63
2021/10/09 01:40:24;;;;;;;37.80;26.87;;;8.70;99.90;;;;;;5012866;28;20928;-63
2021/10/09 01:42:50;;;;;;;63.07;36.27;;;8.70;99.90;;;;;;5018389;28;20449;-63
2021/10/09 01:45:17;;;;;;;67.40;38.47;;;8.60;99.90;;;;;;5032602;28;20461;-63
2021/10/09 01:47:44;;;;;;;61.90;36.13;;;8.60;99.90;;;;;;5032258;28;20453;-63
2021/10/09 01:50:11;;;;;;;68.73;37.10;;;8.70;99.90;;;;;;5032358;28;20452;-61
2021/10/09 01:52:38;;;;;;;58.50;35.27;;;8.70;99.90;;;;;;5014551;28;20481;-63
2021/10/09 01:55:08;;;;;;;58.30;36.90;;;8.60;99.90;;;;;;5012511;28;20461;-63
2021/10/09 01:57:34;;;;;;;55.30;38.87;;;8.70;99.90;;;;;;5012587;28;20442;-60
2021/10/09 02:00:03;;;;;;;61.53;35.77;;;8.60;99.90;;;;;;5012915;28;20449;-63
2021/10/09 02:02:30;;;;;;;50.90;33.37;;;8.60;99.90;;;;;;5028395;28;20879;-63
2021/10/09 02:04:56;;;;;;;48.70;32.40;;;8.60;99.90;;;;;;5032031;28;20465;-63
2021/10/09 02:07:24;;;;;;;71.87;39.97;;;8.60;99.90;;;;;;5032192;28;20449;-63
2021/10/09 02:09:51;;;;;;;58.63;33.63;;;8.60;99.90;;;;;;5030142;28;20536;-63
2021/10/09 02:12:20;;;;;;;55.33;33.00;;;8.50;99.90;;;;;;5031992;28;20485;-63
2021/10/09 02:14:50;;;;;;;62.17;37.30;;;8.50;99.90;;;;;;5031874;28;20845;-63
2021/10/09 02:25:47;;;;;;;62.67;37.10;;;8.40;99.90;;;;;;4998801;28;20456;-63
2021/10/09 02:28:16;;;;;;;63.97;35.33;;;8.40;99.90;;;;;;5011952;28;20445;-62
2021/10/09 02:30:44;;;;;;;61.60;36.30;;;8.40;99.90;;;;;;5026490;28;20452;-63
2021/10/09 02:33:11;;;;;;;76.57;41.20;;;8.30;99.90;;;;;;5031728;28;20459;-63
2021/10/09 02:35:38;;;;;;;73.57;36.97;;;8.30;99.90;;;;;;5031648;28;20469;-62
2021/10/09 02:38:07;;;;;;;66.27;36.73;;;8.30;99.90;;;;;;5031585;28;20444;-62
2021/10/09 02:40:34;;;;;;;62.20;37.40;;;8.20;99.90;;;;;;5018316;28;20450;-62
2021/10/09 02:43:01;;;;;;;58.90;37.77;;;8.30;99.90;;;;;;5029130;28;20445;-61
2021/10/09 02:45:29;;;;;;;69.23;38.10;;;8.20;99.90;;;;;;5031602;28;20477;-62
2021/10/09 02:47:57;;;;;;;61.30;34.77;;;8.20;99.90;;;;;;5031442;28;20808;-63
2021/10/09 02:50:24;;;;;;;62.47;37.97;;;8.20;99.90;;;;;;5020423;28;20453;-62
2021/10/09 02:52:51;;;;;;;52.70;33.50;;;8.10;99.90;;;;;;5015785;28;21005;-63
2021/10/09 02:55:19;;;;;;;44.77;32.50;;;8.10;99.90;;;;;;5015859;28;20468;-62
2021/10/09 02:57:46;;;;;;;64.07;36.70;;;8.10;99.90;;;;;;5018715;28;20464;-62
2021/10/09 03:00:13;;;;;;;52.60;33.73;;;8.10;99.90;;;;;;5035466;28;20448;-62
2021/10/09 03:02:41;;;;;;;48.23;34.47;;;8.00;99.90;;;;;;5035598;28;20922;-62
2021/10/09 03:05:10;;;;;;;70.27;38.43;;;8.00;99.90;;;;;;5035313;28;20472;-62
2021/10/09 03:07:37;;;;;;;71.17;40.13;;;8.00;99.90;;;;;;5033193;28;20448;-60
2021/10/09 03:10:04;;;;;;;54.73;35.13;;;8.00;99.90;;;;;;5015508;28;20955;-62
2021/10/09 03:12:31;;;;;;;68.17;38.00;;;8.00;99.90;;;;;;5015403;28;20493;-62
2021/10/09 03:14:57;;;;;;;71.53;39.90;;;8.00;99.90;;;;;;5019232;28;20484;-62
2021/10/09 03:17:24;;;;;;;66.43;37.80;;;7.90;99.90;;;;;;5035536;28;20444;-63
2021/10/09 03:19:52;;;;;;;56.90;35.20;;;8.00;99.90;;;;;;5035032;28;20938;-61
2021/10/09 03:22:19;;;;;;;54.07;33.40;;;7.90;99.90;;;;;;5035215;28;20445;-63
2021/10/09 03:24:46;;;;;;;51.80;34.77;;;7.90;99.90;;;;;;5032647;28;20461;-63
2021/10/09 03:27:12;;;;;;;75.20;40.17;;;7.80;99.90;;;;;;5015266;28;20445;-62
2021/10/09 03:29:39;;;;;;;75.33;42.70;;;7.80;99.90;;;;;;5015175;28;20810;-63
2021/10/09 03:32:06;;;;;;;73.97;41.17;;;7.80;99.90;;;;;;5015105;28;20493;-63
2021/10/09 03:34:33;;;;;;;67.40;40.37;;;7.80;99.90;;;;;;5015139;28;20481;-63
2021/10/09 03:37:03;;;;;;;72.27;39.80;;;7.80;99.90;;;;;;5034605;28;20506;-63
2021/10/09 03:39:30;;;;;;;76.90;42.43;;;7.80;99.90;;;;;;5034499;28;20445;-62
2021/10/09 03:42:01;;;;;;;66.80;39.27;;;7.80;99.90;;;;;;5034807;28;20449;-61
2021/10/09 03:44:31;;;;;;;71.23;43.27;;;7.80;99.90;;;;;;5034699;28;20465;-63
2021/10/09 03:47:02;;;;;;;73.03;41.00;;;7.80;99.90;;;;;;5015090;28;20547;-63
2021/10/09 03:49:39;;;;;;;65.87;38.50;;;7.70;99.90;;;;;;5014667;28;20472;-62
2021/10/09 03:52:34;;;;;;;71.30;41.60;;;7.70;99.90;;;;;;5014960;28;20473;-60
2021/10/09 03:55:01;;;;;;;81.93;43.03;;;7.70;99.90;;;;;;5018285;28;20532;-63
2021/10/09 03:57:28;;;;;;;78.80;44.40;;;7.70;99.90;;;;;;5034342;28;20441;-63
2021/10/09 03:59:54;;;;;;;78.97;43.97;;;7.70;99.90;;;;;;5034459;28;20631;-63
2021/10/09 04:02:21;;;;;;;59.37;40.53;;;7.70;99.90;;;;;;5033923;28;20452;-62
2021/10/09 04:04:48;;;;;;;78.83;45.37;;;7.70;99.90;;;;;;5032425;28;20461;-62
2021/10/09 04:07:16;;;;;;;78.53;43.53;;;7.80;99.90;;;;;;5014581;28;20842;-61
2021/10/09 04:09:42;;;;;;;81.70;41.73;;;7.80;99.90;;;;;;5014304;28;20453;-63
2021/10/09 04:12:09;;;;;;;65.37;42.50;;;7.80;99.90;;;;;;5014375;28;21018;-62
2021/10/09 04:14:36;;;;;;;81.50;44.03;;;7.80;99.90;;;;;;5014721;28;20497;-64
2021/10/09 04:17:03;;;;;;;83.67;45.20;;;7.70;99.90;;;;;;5033774;28;20460;-64
2021/10/09 04:19:29;;;;;;;76.00;45.67;;;7.70;99.90;;;;;;5033825;28;20817;-63
2021/10/09 04:21:56;;;;;;;80.30;43.97;;;7.70;99.90;;;;;;5034041;28;20946;-63
2021/10/09 04:24:24;;;;;;;95.77;48.47;;;7.60;99.90;;;;;;5022249;28;20442;-63
2021/10/09 04:26:51;;;;;;;86.47;45.13;;;7.60;99.90;;;;;;5014268;28;20508;-63
2021/10/09 04:29:17;;;;;;;72.20;43.90;;;7.60;99.90;;;;;;5014028;28;20457;-63
2021/10/09 04:31:44;;;;;;;78.47;42.97;;;7.60;99.90;;;;;;5013930;28;21014;-63
2021/10/09 04:34:11;;;;;;;75.13;45.27;;;7.70;99.90;;;;;;5023420;28;20453;-63
2021/10/09 04:36:38;;;;;;;93.97;46.70;;;7.70;99.90;;;;;;5033955;28;20812;-63
2021/10/09 04:39:05;;;;;;;85.30;44.90;;;7.60;99.90;;;;;;5033506;28;20453;-64
2021/10/09 04:41:33;;;;;;;91.57;47.87;;;7.60;99.90;;;;;;5033804;28;20452;-64
2021/10/09 04:43:59;;;;;;;82.13;45.77;;;7.60;99.90;;;;;;5025809;28;20815;-64
2021/10/09 04:46:26;;;;;;;91.43;46.70;;;7.60;99.90;;;;;;5013854;28;20470;-64
2021/10/09 04:48:53;;;;;;;71.43;42.40;;;7.60;99.90;;;;;;5013793;28;20457;-64
2021/10/09 04:51:20;;;;;;;65.90;42.30;;;7.60;99.90;;;;;;5013716;28;20453;-64
2021/10/09 04:53:47;;;;;;;85.47;45.03;;;7.60;99.90;;;;;;5019320;28;20441;-64
2021/10/09 04:56:13;;;;;;;79.43;43.90;;;7.60;99.90;;;;;;5033409;28;20465;-63
2021/10/09 04:58:41;;;;;;;83.03;44.40;;;7.60;99.90;;;;;;5033182;28;20807;-64
2021/10/09 05:01:08;;;;;;;68.70;43.13;;;7.60;99.90;;;;;;5033227;28;20503;-64
2021/10/09 05:03:35;;;;;;;85.63;46.40;;;7.60;99.90;;;;;;5015242;28;20453;-64
2021/10/09 05:06:01;;;;;;;63.63;40.10;;;7.60;99.90;;;;;;5013309;28;20493;-63
2021/10/09 05:08:28;;;;;;;72.53;43.27;;;7.60;99.90;;;;;;5013172;28;20454;-63
2021/10/09 05:10:57;;;;;;;82.43;44.40;;;7.60;99.90;;;;;;5013330;28;20450;-61
2021/10/09 05:13:23;;;;;;;72.83;44.63;;;7.60;99.90;;;;;;5027818;28;21043;-61
2021/10/09 05:15:51;;;;;;;78.77;44.47;;;7.60;99.90;;;;;;5032770;28;20480;-62
2021/10/09 05:18:18;;;;;;;72.87;43.60;;;7.50;99.90;;;;;;5032673;28;20452;-61
2021/10/09 05:20:45;;;;;;;71.13;42.90;;;7.50;99.90;;;;;;5032869;28;20474;-61
2021/10/09 05:23:12;;;;;;;78.77;41.80;;;7.50;99.90;;;;;;5018738;28;20453;-62
2021/10/09 05:25:41;;;;;;;92.27;45.80;;;7.50;99.90;;;;;;5013007;28;20947;-62
2021/10/09 05:28:10;;;;;;;93.47;42.40;;;7.50;99.90;;;;;;5012781;28;20920;-64
2021/10/09 05:30:45;;;;;;;67.80;41.53;;;7.40;99.90;;;;;;5014102;28;20454;-62
2021/10/09 05:33:19;;;;;;;86.63;47.10;;;7.40;99.90;;;;;;5012811;28;20489;-63
2021/10/09 05:35:46;;;;;;;83.97;45.30;;;7.30;99.90;;;;;;5012884;28;20474;-61
2021/10/09 05:38:12;;;;;;;83.30;46.87;;;7.30;99.90;;;;;;5012618;28;20450;-62
2021/10/09 05:40:39;;;;;;;93.63;46.77;;;7.30;99.90;;;;;;5019048;28;21148;-63
2021/10/09 05:43:06;;;;;;;79.53;43.00;;;7.30;99.90;;;;;;5021361;28;20448;-62
2021/10/09 05:45:34;;;;;;;82.67;45.73;;;7.30;99.90;;;;;;5020871;28;20469;-61
2021/10/09 05:48:01;;;;;;;93.30;46.73;;;7.30;99.90;;;;;;5020793;28;21116;-59
2021/10/09 05:50:33;;;;;;;91.27;45.60;;;7.30;99.90;;;;;;5015506;28;20460;-63
2021/10/09 05:53:09;;;;;;;82.53;46.57;;;7.30;99.90;;;;;;5000524;28;20826;-63
2021/10/09 05:55:39;;;;;;;74.63;44.33;;;7.30;99.90;;;;;;5002745;28;20973;-62
2021/10/09 05:58:11;;;;;;;85.83;45.53;;;7.30;99.90;;;;;;5017348;28;20460;-61
2021/10/09 06:01:07;;;;;;;76.80;43.90;;;7.30;99.90;;;;;;5024129;28;20453;-63
2021/10/09 06:42:43;;;;;;;62.60;42.43;;;8.10;99.90;;;;;;5024400;28;20459;-61
2021/10/09 06:45:20;;;;;;;63.60;41.97;;;8.10;99.90;;;;;;5021705;28;21327;-61
2021/10/09 06:47:49;;;;;;;52.87;37.67;;;8.20;99.90;;;;;;5022670;28;20457;-61
2021/10/09 06:50:41;;;;;;;58.43;37.53;;;8.30;99.90;;;;;;5018292;28;20908;-61
2021/10/09 07:01:22;;;;;;;54.67;37.40;;;8.60;99.90;;;;;;5022805;28;20470;-61
2021/10/09 07:03:49;;;;;;;51.83;30.53;;;8.70;99.90;;;;;;5031736;28;20459;-61
2021/10/09 07:06:18;;;;;;;42.40;28.50;;;8.80;99.90;;;;;;5031423;28;20480;-61
2021/10/09 07:08:44;;;;;;;51.67;28.60;;;8.80;99.90;;;;;;5018455;28;20452;-61
2021/10/09 07:11:14;;;;;;;49.33;32.33;;;8.90;99.90;;;;;;5009786;28;20453;-63
2021/10/09 07:13:42;;;;;;;50.73;35.13;;;9.00;99.90;;;;;;5014993;28;20521;-61
2021/10/09 07:16:10;;;;;;;43.67;29.13;;;9.10;99.90;;;;;;5016579;28;20490;-61
2021/10/09 07:18:36;;;;;;;55.37;31.37;;;9.20;99.90;;;;;;5014219;28;20446;-62
2021/10/09 07:21:03;;;;;;;52.10;28.43;;;9.20;99.90;;;;;;5037071;28;20922;-61
2021/10/09 07:23:30;;;;;;;55.30;31.17;;;9.30;99.90;;;;;;5037170;28;20447;-61
2021/10/09 07:25:57;;;;;;;48.40;29.47;;;9.50;99.90;;;;;;5034376;28;20469;-61
2021/10/09 07:28:26;;;;;;;47.30;30.30;;;9.50;99.90;;;;;;5031968;28;20459;-62
2021/10/09 07:30:53;;;;;;;39.70;29.90;;;9.60;99.90;;;;;;5027479;28;20532;-61
2021/10/09 07:33:20;;;;;;;44.47;27.77;;;9.70;99.90;;;;;;4999376;28;21066;-63
2021/10/09 07:35:47;;;;;;;47.77;28.43;;;9.80;99.90;;;;;;4999295;28;20478;-64
2021/10/09 07:38:14;;;;;;;53.20;36.23;;;9.90;99.90;;;;;;5002495;28;20457;-64
2021/10/09 07:40:42;;;;;;;48.00;31.73;;;10.10;99.90;;;;;;5014825;28;20460;-60
2021/10/09 07:43:08;;;;;;;43.30;30.10;;;10.20;99.90;;;;;;5022456;28;20445;-63
2021/10/09 07:45:37;;;;;;;42.80;27.33;;;10.30;99.90;;;;;;5022424;28;20481;-62
2021/10/09 07:48:04;;;;;;;44.90;28.57;;;10.40;99.90;;;;;;5022336;28;20452;-63
2021/10/09 07:50:30;;;;;;;42.40;27.80;;;10.50;99.90;;;;;;5012297;28;20458;-62
2021/10/09 07:52:57;;;;;;;38.43;25.53;;;10.60;99.90;;;;;;5002747;28;20485;-62
2021/10/09 07:55:24;;;;;;;42.70;30.27;;;10.70;99.90;;;;;;5002522;28;20469;-62
2021/10/09 07:57:51;;;;;;;42.13;29.80;;;10.80;99.90;;;;;;5002426;28;20454;-62
2021/10/09 08:00:18;;;;;;;40.43;27.43;;;10.90;99.90;;;;;;5002566;28;20450;-62
2021/10/09 08:02:50;;;;;;;38.57;28.10;;;11.00;99.90;;;;;;5015971;28;20445;-61
2021/10/09 08:05:17;;;;;;;37.87;26.50;;;11.10;99.90;;;;;;5022289;28;20472;-62
2021/10/09 08:07:44;;;;;;;34.80;25.77;;;11.20;99.90;;;;;;5022043;28;20449;-60
2021/10/09 08:10:11;;;;;;;34.27;25.90;;;11.30;99.90;;;;;;5022035;28;20445;-62
2021/10/09 08:12:39;;;;;;;38.17;28.33;;;11.40;99.90;;;;;;5010329;28;21136;-61
2021/10/09 08:15:06;;;;;;;32.30;25.50;;;11.40;99.90;;;;;;5002216;28;20482;-62
2021/10/09 08:17:34;;;;;;;33.03;25.80;;;11.60;99.90;;;;;;5002366;28;21053;-62
2021/10/09 08:20:03;;;;;;;36.70;25.83;;;11.60;99.90;;;;;;5002060;28;20457;-62
2021/10/09 08:22:32;;;;;;;34.43;25.53;;;11.70;99.90;;;;;;5002235;28;20454;-62
2021/10/09 08:25:18;;;;;;;31.67;25.40;;;11.90;99.90;;;;;;5015203;28;21319;-63
2021/10/09 08:28:03;;;;;;;51.27;28.30;;;11.90;99.90;;;;;;5021773;28;20449;-60
2021/10/09 08:36:14;;;;;;;31.63;24.50;;;12.20;99.90;;;;;;4993354;28;21364;-62
2021/10/09 08:38:53;;;;;;;33.90;25.60;;;12.30;99.90;;;;;;5001699;28;21198;-61
2021/10/09 08:41:22;;;;;;;29.87;25.30;;;12.50;99.90;;;;;;5001830;28;20532;-61
2021/10/09 08:43:51;;;;;;;28.60;24.27;;;12.60;99.90;;;;;;5004252;28;20449;-60
2021/10/09 08:46:19;;;;;;;26.50;23.70;;;12.70;99.90;;;;;;5019652;28;21196;-61
2021/10/09 08:48:48;;;;;;;27.13;23.73;;;12.80;99.90;;;;;;5010072;28;20442;-60
2021/10/09 08:51:20;;;;;;;27.73;24.90;;;12.80;99.90;;;;;;5016963;28;20449;-60
2021/10/09 08:53:47;;;;;;;29.33;26.43;;;12.90;99.90;;;;;;5021268;28;20485;-62
2021/10/09 08:56:30;;;;;;;28.43;25.67;;;13.00;99.90;;;;;;5021213;28;20508;-62
2021/10/09 08:59:11;;;;;;;30.20;27.20;;;13.10;99.90;;;;;;5020607;28;20453;-60
2021/10/09 09:01:45;;;;;;;28.30;25.47;;;13.20;99.90;;;;;;5001289;28;21334;-61
2021/10/09 09:04:27;;;;;;;26.67;24.17;;;13.30;99.90;;;;;;5001346;28;20448;-60
2021/10/09 09:07:21;;;;;;;28.30;25.50;;;13.40;99.90;;;;;;5001273;28;20458;-62
2021/10/09 09:27:10;;;;;;;26.93;24.83;;;14.20;99.90;;;;;;5003470;28;20438;-62
2021/10/09 09:35:25;;;;;;;29.97;27.50;;;14.60;99.90;;;;;;5020647;28;21295;-59
2021/10/09 09:40:42;;;;;;;30.53;28.10;;;14.80;99.90;;;;;;5005446;28;20448;-62
2021/10/09 09:43:11;;;;;;;28.03;25.83;;;15.10;99.90;;;;;;5001309;28;20867;-59
2021/10/09 09:45:39;;;;;;;28.10;25.83;;;15.20;99.90;;;;;;5000919;28;21072;-62
2021/10/09 09:48:08;;;;;;;28.43;26.23;;;15.30;99.90;;;;;;5000658;28;20461;-62
2021/10/09 09:50:36;;;;;;;30.43;27.73;;;15.40;99.90;;;;;;5015856;28;20449;-62
2021/10/09 09:53:05;;;;;;;29.13;26.83;;;15.60;99.90;;;;;;5020546;28;20481;-62
2021/10/09 09:55:33;;;;;;;35.07;26.30;;;15.60;99.90;;;;;;5027323;28;20732;-61
2021/10/09 09:58:02;;;;;;;29.00;26.60;;;15.70;99.90;;;;;;5026008;28;20481;-61
2021/10/09 10:00:35;;;;;;;28.97;26.70;;;15.80;99.90;;;;;;5020064;28;20461;-59
2021/10/09 10:03:05;;;;;;;29.37;26.93;;;16.00;99.90;;;;;;5003917;28;20491;-61
2021/10/09 10:05:33;;;;;;;28.60;26.50;;;16.10;99.90;;;;;;5000450;28;20581;-60
2021/10/09 10:08:00;;;;;;;29.27;26.53;;;15.90;99.90;;;;;;5014978;28;20991;-62
2021/10/09 10:10:27;;;;;;;31.90;29.40;;;15.90;99.90;;;;;;5015533;28;20506;-62
2021/10/09 10:12:57;;;;;;;29.70;27.10;;;16.00;99.90;;;;;;5028004;28;20444;-61
2021/10/09 10:15:33;;;;;;;28.83;26.53;;;16.10;99.90;;;;;;5042091;22;20556;-60
2021/10/09 10:18:01;;;;;;;29.97;27.27;;;16.20;99.90;;;;;;5030697;28;20937;-61
2021/10/09 10:20:49;;;;;;;33.00;29.80;;;16.30;99.90;;;;;;5030840;28;20453;-61
2021/10/09 10:23:38;;;;;;;29.73;27.33;;;16.40;99.90;;;;;;5019775;28;20441;-59
2021/10/09 10:26:27;;;;;;;29.90;27.00;;;16.70;99.90;;;;;;5019625;28;20783;-59
2021/10/09 10:29:23;;;;;;;30.33;27.13;;;17.00;99.90;;;;;;5019366;28;20484;-57
2021/10/09 10:32:18;;;;;;;29.87;27.10;;;17.10;99.90;;;;;;5025125;28;20444;-60
2021/10/09 10:34:47;;;;;;;30.50;27.77;;;17.50;99.90;;;;;;5039346;28;20480;-60
2021/10/09 10:37:36;;;;;;;28.50;26.43;;;17.90;99.90;;;;;;5039333;28;20452;-59
2021/10/09 10:40:05;;;;;;;28.87;26.80;;;18.30;99.90;;;;;;5039287;28;20456;-58
2021/10/09 10:42:33;;;;;;;30.67;28.30;;;18.50;99.90;;;;;;5039154;28;20995;-61
2021/10/09 10:45:08;;;;;;;29.37;27.17;;;18.60;99.90;;;;;;5025027;28;20915;-60
2021/10/09 10:47:44;;;;;;;29.80;27.53;;;18.70;99.90;;;;;;5019374;28;20452;-60
2021/10/09 10:50:49;;;;;;;30.43;28.33;;;18.90;99.90;;;;;;5019481;28;20546;-60
2021/10/09 10:53:23;;;;;;;28.93;26.73;;;19.70;99.90;;;;;;5032791;28;20480;-59
2021/10/09 10:56:11;;;;;;;29.43;27.33;;;19.90;99.00;;;;;;5023690;28;20480;-59
2021/10/09 10:58:39;;;;;;;29.07;27.03;;;20.70;96.40;;;;;;5013024;28;20938;-60
2021/10/09 11:01:20;;;;;;;33.37;29.73;;;21.60;92.80;;;;;;5019115;28;20746;-59
2021/10/09 11:03:51;;;;;;;29.57;27.03;;;22.30;88.30;;;;;;5037067;28;20909;-60
2021/10/09 11:06:19;;;;;;;28.93;27.07;;;22.30;83.80;;;;;;5039030;28;20894;-60
2021/10/09 11:08:47;;;;;;;30.30;28.00;;;22.30;80.30;;;;;;5039101;28;20448;-60
2021/10/09 11:11:15;;;;;;;30.23;28.33;;;22.50;77.10;;;;;;5039510;28;20452;-59
2021/10/09 11:13:43;;;;;;;30.77;28.37;;;22.70;73.80;;;;;;5041742;28;20609;-60
2021/10/09 11:16:10;;;;;;;30.00;28.00;;;23.20;73.30;;;;;;5022591;28;20496;-60
2021/10/09 11:18:53;;;;;;;32.20;30.00;;;24.20;69.40;;;;;;5022708;28;20453;-60
2021/10/09 11:21:21;;;;;;;30.53;28.33;;;25.30;64.30;;;;;;5022823;28;21256;-60
2021/10/09 11:23:50;;;;;;;30.80;28.90;;;26.00;56.50;;;;;;5038191;28;20455;-59
2021/10/09 11:26:18;;;;;;;30.00;27.73;;;26.50;52.40;;;;;;5042829;28;20840;-60
2021/10/09 11:28:45;;;;;;;30.30;28.30;;;27.50;49.60;;;;;;5042681;28;20511;-60
2021/10/09 11:31:22;;;;;;;29.17;27.37;;;28.20;46.90;;;;;;5042830;28;20447;-60
2021/10/09 11:33:56;;;;;;;31.97;29.83;;;29.00;45.30;;;;;;5027643;28;20480;-61
2021/10/09 11:36:23;;;;;;;32.40;30.30;;;28.30;44.90;;;;;;5022775;28;20739;-60
2021/10/09 11:39:00;;;;;;;31.70;29.50;;;26.60;47.80;;;;;;5022390;28;20456;-59
2021/10/09 11:41:27;;;;;;;32.57;30.07;;;25.80;49.40;;;;;;5022760;28;20452;-60
2021/10/09 11:43:59;;;;;;;29.93;28.00;;;25.40;51.10;;;;;;5023833;28;20448;-60
2021/10/09 11:46:43;;;;;;;31.60;29.20;;;24.90;51.70;;;;;;5042324;28;20937;-61
2021/10/09 11:55:21;;;;;;;30.70;28.30;;;24.20;54.70;;;;;;4978993;28;20638;-61
2021/10/09 11:57:49;;;;;;;30.80;28.80;;;24.20;54.00;;;;;;5009852;28;20839;-61
2021/10/09 12:00:39;;;;;;;29.43;27.53;;;23.80;54.80;;;;;;5022207;28;20908;-60
2021/10/09 12:03:35;;;;;;;29.37;27.07;;;23.70;55.50;;;;;;5030568;28;20448;-60
2021/10/09 12:06:09;;;;;;;28.80;26.70;;;23.20;55.90;;;;;;5041960;28;20486;-60
2021/10/09 12:08:47;;;;;;;29.17;27.33;;;22.90;57.60;;;;;;5041985;28;20478;-60
2021/10/09 12:11:22;;;;;;;30.50;28.50;;;22.90;58.10;;;;;;5042183;28;20428;-60
2021/10/09 12:13:55;;;;;;;32.60;30.27;;;22.70;57.70;;;;;;5041771;28;20475;-59
2021/10/09 12:16:28;;;;;;;30.83;28.43;;;22.20;58.00;;;;;;5024226;28;20487;-61
2021/10/09 12:18:57;;;;;;;32.47;29.97;;;21.80;59.20;;;;;;5021640;28;20483;-61
2021/10/09 12:21:28;;;;;;;29.97;27.87;;;21.40;59.80;;;;;;5021839;28;20993;-60
2021/10/09 12:23:56;;;;;;;30.60;28.63;;;21.10;62.10;;;;;;5032502;28;21028;-59
2021/10/09 12:26:26;;;;;;;28.77;26.57;;;21.30;62.70;;;;;;5041671;28;20464;-61
2021/10/09 12:29:23;;;;;;;29.27;27.33;;;21.80;61.70;;;;;;5041448;28;20457;-61
2021/10/09 12:31:49;;;;;;;28.83;26.87;;;22.50;59.70;;;;;;4979338;28;20447;-60
2021/10/09 12:34:31;;;;;;;30.03;27.83;;;22.10;59.50;;;;;;5012684;28;20942;-60
2021/10/09 12:37:27;;;;;;;27.90;25.90;;;21.50;61.40;;;;;;5022132;28;20548;-61
2021/10/09 12:40:18;;;;;;;27.77;25.77;;;21.30;63.40;;;;;;4975569;28;20925;-61
2021/10/09 12:42:47;;;;;;;29.83;27.40;;;21.10;64.90;;;;;;5021848;28;20441;-59
2021/10/09 12:45:14;;;;;;;30.57;28.37;;;21.00;66.30;;;;;;5024650;28;20452;-60
2021/10/09 12:47:42;;;;;;;28.10;25.90;;;21.00;69.50;;;;;;5041420;28;20448;-61
2021/10/09 12:50:10;;;;;;;27.67;25.50;;;21.10;65.10;;;;;;5041110;28;20444;-59
2021/10/09 12:52:38;;;;;;;25.20;23.60;;;21.00;65.20;;;;;;5039837;28;20455;-60
2021/10/09 12:55:06;;;;;;;25.13;23.53;;;21.00;66.00;;;;;;5021872;28;21014;-59
2021/10/09 12:57:34;;;;;;;26.43;24.53;;;20.80;66.00;;;;;;5019902;28;20441;-61
2021/10/09 13:00:01;;;;;;;26.00;24.20;;;20.90;67.80;;;;;;5019535;28;20815;-61
2021/10/09 13:02:28;;;;;;;27.60;25.70;;;20.70;68.40;;;;;;5020266;28;20456;-60
2021/10/09 13:04:55;;;;;;;26.10;24.00;;;20.80;68.20;;;;;;5034009;28;20469;-60
2021/10/09 13:07:22;;;;;;;25.73;24.03;;;20.70;66.30;;;;;;5039617;28;20456;-61
2021/10/09 13:09:53;;;;;;;25.73;23.77;;;20.90;66.70;;;;;;5039100;28;20456;-60
2021/10/09 13:12:20;;;;;;;27.30;25.50;;;21.00;67.50;;;;;;5039658;28;20463;-61
2021/10/09 13:14:47;;;;;;;25.60;23.73;;;21.20;69.10;;;;;;5039406;28;20487;-61
2021/10/09 13:17:14;;;;;;;26.57;24.97;;;22.40;67.90;;;;;;5024861;28;20453;-59
2021/10/09 13:19:41;;;;;;;25.83;24.17;;;24.80;62.00;;;;;;5020552;28;20455;-60
2021/10/09 13:22:08;;;;;;;26.57;24.70;;;27.30;54.40;;;;;;5020743;28;20460;-61
2021/10/09 13:24:35;;;;;;;27.90;26.20;;;29.90;49.70;;;;;;5028162;28;20444;-60
2021/10/09 13:27:03;;;;;;;26.90;25.30;;;32.00;43.50;;;;;;5040490;28;20447;-59
2021/10/09 13:29:30;;;;;;;26.27;24.97;;;34.40;40.00;;;;;;5040276;28;20461;-62
2021/10/09 13:31:57;;;;;;;26.60;25.03;;;35.70;36.00;;;;;;5040484;28;20521;-61
2021/10/09 13:34:24;;;;;;;27.87;26.20;;;35.80;33.70;;;;;;5033372;28;21017;-63
2021/10/09 13:36:51;;;;;;;26.83;25.35;;;37.40;32.60;;;;;;5032383;28;20474;-63
2021/10/09 13:39:18;;;;;;;26.63;25.25;;;37.50;30.50;;;;;;5031909;28;20208;-65
2021/10/09 13:41:44;;;;;;;26.90;25.50;;;38.60;29.70;;;;;;5032377;28;20210;-65
2021/10/09 13:44:12;;;;;;;27.55;25.73;;;38.20;28.30;;;;;;5031264;28;20214;-64
2021/10/09 13:46:40;;;;;;;27.90;26.33;;;38.90;27.60;;;;;;5038897;28;20752;-65
2021/10/09 13:49:07;;;;;;;26.70;25.10;;;39.10;27.00;;;;;;5051831;28;20220;-64
2021/10/09 13:51:34;;;;;;;29.65;27.98;;;40.60;26.60;;;;;;5052052;28;20205;-64
2021/10/09 13:54:01;;;;;;;28.83;27.15;;;39.90;27.30;;;;;;5051173;28;20207;-65
2021/10/09 13:56:28;;;;;;;28.80;27.20;;;39.50;27.40;;;;;;5032464;28;20229;-65
2021/10/09 13:58:54;;;;;;;29.08;27.35;;;39.70;27.00;;;;;;5031927;28;20202;-65
2021/10/09 14:01:22;;;;;;;28.88;27.10;;;38.40;26.90;;;;;;5032049;28;20805;-65
2021/10/09 14:03:49;;;;;;;28.13;26.65;;;37.60;27.80;;;;;;5031984;28;20217;-65
2021/10/09 14:06:16;;;;;;;27.60;25.70;;;38.00;28.80;;;;;;5048904;28;20219;-65
2021/10/09 14:08:43;;;;;;;26.67;25.17;;;38.80;28.10;;;;;;5051632;28;20201;-65
2021/10/09 14:11:09;;;;;;;28.30;26.55;;;38.70;27.60;;;;;;5051810;28;20205;-65
2021/10/09 14:13:36;;;;;;;27.38;25.77;;;39.40;27.70;;;;;;5051786;28;20576;-65
2021/10/09 14:16:03;;;;;;;27.88;26.17;;;39.60;26.70;;;;;;5051448;28;20234;-65
2021/10/09 14:18:31;;;;;;;27.05;25.40;;;39.40;27.20;;;;;;5045734;28;20623;-64
2021/10/09 14:20:57;;;;;;;27.00;25.60;;;39.00;27.30;;;;;;5051673;28;20263;-65